createdAt,value
2022-11-07T00:01:28.591Z,4.10
2022-11-07T00:03:55.544Z,4.38
2022-11-07T00:06:22.586Z,4.90
2022-11-07T00:08:51.289Z,4.18
2022-11-07T00:11:18.131Z,4.05
2022-11-07T00:13:44.865Z,4.00
2022-11-07T00:16:11.895Z,4.35
2022-11-07T00:18:39.162Z,5.10
2022-11-07T00:21:08.707Z,4.40
2022-11-07T00:23:38.234Z,5.35
2022-11-07T00:26:07.959Z,5.53
2022-11-07T00:28:39.872Z,5.28
2022-11-07T00:31:08.149Z,4.82
2022-11-07T00:33:35.660Z,5.35
2022-11-07T00:36:03.081Z,4.82
2022-11-07T00:38:30.489Z,5.40
2022-11-07T00:41:02.860Z,5.03
2022-11-07T00:43:31.019Z,5.25
2022-11-07T00:46:00.262Z,4.93
2022-11-07T00:48:27.183Z,5.55
2022-11-07T00:50:53.877Z,5.50
2022-11-07T00:53:20.761Z,5.72
2022-11-07T00:55:47.779Z,4.80
2022-11-07T00:58:16.126Z,5.45
2022-11-07T01:00:43.694Z,5.28
2022-11-07T01:03:28.821Z,5.50
2022-11-07T01:06:00.481Z,5.45
2022-11-07T01:08:38.314Z,5.30
2022-11-07T01:11:07.010Z,5.63
2022-11-07T01:13:34.615Z,4.72
2022-11-07T01:16:01.585Z,5.05
2022-11-07T01:18:28.540Z,5.50
2022-11-07T01:20:55.604Z,4.50
2022-11-07T01:23:23.407Z,5.20
2022-11-07T01:25:50.261Z,5.22
2022-11-07T01:28:18.880Z,5.50
2022-11-07T01:30:46.450Z,5.43
2022-11-07T01:33:14.108Z,5.68
2022-11-07T01:35:53.873Z,5.55
2022-11-07T01:38:20.785Z,5.68
2022-11-07T01:41:07.836Z,5.82
2022-11-07T01:43:46.561Z,5.75
2022-11-07T01:46:23.286Z,5.65
2022-11-07T01:48:58.319Z,5.50
2022-11-07T01:51:26.384Z,6.85
2022-11-07T01:54:07.169Z,6.05
2022-11-07T01:56:37.655Z,6.35
2022-11-07T01:59:05.232Z,5.88
2022-11-07T02:01:32.406Z,5.80
2022-11-07T02:04:00.170Z,6.03
2022-11-07T02:06:50.205Z,5.68
2022-11-07T02:09:17.149Z,5.45
2022-11-07T02:11:44.141Z,5.63
2022-11-07T02:14:18.621Z,5.82
2022-11-07T02:16:46.411Z,5.80
2022-11-07T02:19:30.939Z,5.43
2022-11-07T02:22:14.679Z,5.93
2022-11-07T02:24:41.822Z,6.03
2022-11-07T02:27:15.253Z,5.90
2022-11-07T02:29:45.602Z,5.45
2022-11-07T02:32:13.114Z,5.97
2022-11-07T02:34:39.978Z,5.10
2022-11-07T02:37:26.471Z,6.32
2022-11-07T02:39:53.189Z,5.28
2022-11-07T02:42:21.613Z,6.28
2022-11-07T02:44:48.680Z,5.47
2022-11-07T02:47:15.776Z,5.43
2022-11-07T02:49:42.579Z,6.43
2022-11-07T02:52:09.354Z,5.85
2022-11-07T02:54:36.198Z,5.60
2022-11-07T02:57:03.345Z,5.70
2022-11-07T02:59:30.293Z,5.63
2022-11-07T03:01:57.752Z,6.75
2022-11-07T03:04:24.905Z,6.35
2022-11-07T03:06:52.093Z,6.57
2022-11-07T03:09:19.007Z,5.82
2022-11-07T03:11:53.212Z,6.68
2022-11-07T03:14:20.179Z,6.33
2022-11-07T03:16:46.883Z,6.10
2022-11-07T03:19:13.797Z,6.55
2022-11-07T03:21:40.505Z,6.22
2022-11-07T03:24:07.589Z,6.38
2022-11-07T03:26:34.264Z,5.88
2022-11-07T03:29:01.181Z,7.20
2022-11-07T03:31:28.101Z,6.82
2022-11-07T03:33:55.001Z,6.18
2022-11-07T03:36:21.600Z,6.88
2022-11-07T03:38:48.588Z,6.15
2022-11-07T03:41:17.536Z,5.90
2022-11-07T03:43:47.861Z,6.43
2022-11-07T03:46:18.534Z,6.85
2022-11-07T03:48:45.454Z,6.10
2022-11-07T03:51:12.715Z,6.70
2022-11-07T03:53:42.039Z,5.90
2022-11-07T03:56:10.970Z,6.78
2022-11-07T03:58:38.749Z,6.68
2022-11-07T04:01:06.521Z,5.97
2022-11-07T04:03:33.445Z,5.68
2022-11-07T04:06:00.244Z,6.43
2022-11-07T04:08:26.962Z,5.68
2022-11-07T04:10:54.210Z,6.18
2022-11-07T04:13:39.493Z,6.53
2022-11-07T04:16:30.208Z,6.90
2022-11-07T04:18:57.797Z,6.68
2022-11-07T04:21:24.997Z,6.00
2022-11-07T04:23:51.839Z,5.90
2022-11-07T04:26:37.226Z,6.07
2022-11-07T04:29:04.124Z,6.65
2022-11-07T04:31:31.025Z,7.25
2022-11-07T04:33:57.834Z,6.40
2022-11-07T04:36:24.706Z,6.40
2022-11-07T04:38:51.436Z,5.57
2022-11-07T04:41:20.670Z,6.65
2022-11-07T04:43:53.272Z,6.93
2022-11-07T04:46:20.366Z,6.35
2022-11-07T04:48:46.976Z,6.00
2022-11-07T04:51:17.032Z,5.28
2022-11-07T04:53:43.821Z,5.47
2022-11-07T04:56:10.618Z,6.22
2022-11-07T04:58:37.391Z,5.38
2022-11-07T05:01:04.338Z,5.28
2022-11-07T05:03:31.350Z,5.50
2022-11-07T05:05:58.081Z,5.88
2022-11-07T05:08:24.848Z,5.70
2022-11-07T05:10:51.828Z,5.78
2022-11-07T05:13:18.988Z,6.00
2022-11-07T05:15:45.789Z,5.25
2022-11-07T05:18:12.648Z,5.00
2022-11-07T05:20:40.184Z,5.22
2022-11-07T05:23:15.314Z,5.05
2022-11-07T05:25:44.679Z,5.72
2022-11-07T05:28:12.795Z,6.30
2022-11-07T05:30:41.670Z,5.60
2022-11-07T05:33:10.197Z,5.18
2022-11-07T05:35:37.801Z,5.30
2022-11-07T05:38:05.110Z,4.65
2022-11-07T05:40:34.391Z,5.38
2022-11-07T05:43:09.710Z,5.57
2022-11-07T05:45:41.251Z,4.47
2022-11-07T05:48:11.074Z,4.18
2022-11-07T05:50:38.277Z,4.57
2022-11-07T05:53:05.883Z,4.85
2022-11-07T05:55:33.212Z,4.72
2022-11-07T05:58:06.710Z,4.82
2022-11-07T06:00:33.765Z,4.45
2022-11-07T06:03:00.759Z,4.60
2022-11-07T06:05:28.596Z,4.25
2022-11-07T06:07:55.992Z,4.35
2022-11-07T06:10:23.523Z,4.80
2022-11-07T06:13:04.822Z,4.70
2022-11-07T06:15:34.820Z,4.43
2022-11-07T06:18:03.239Z,4.47
2022-11-07T06:20:30.491Z,5.38
2022-11-07T06:23:01.554Z,4.60
2022-11-07T06:25:29.220Z,4.55
2022-11-07T06:28:00.445Z,4.85
2022-11-07T06:30:27.618Z,4.40
2022-11-07T06:32:54.761Z,4.95
2022-11-07T06:35:21.619Z,4.43
2022-11-07T06:37:48.478Z,4.38
2022-11-07T06:40:15.334Z,4.60
2022-11-07T06:42:42.157Z,5.25
2022-11-07T06:45:09.285Z,4.55
2022-11-07T06:47:36.144Z,5.43
2022-11-07T06:50:03.104Z,4.35
2022-11-07T06:52:29.706Z,4.95
2022-11-07T06:54:56.538Z,4.93
2022-11-07T06:57:23.245Z,5.22
2022-11-07T06:59:51.832Z,5.25
2022-11-07T07:02:37.253Z,4.50
2022-11-07T07:05:05.940Z,5.32
2022-11-07T07:07:32.677Z,5.18
2022-11-07T07:09:59.553Z,5.93
2022-11-07T07:12:26.794Z,5.22
2022-11-07T07:14:53.505Z,5.28
2022-11-07T07:17:20.127Z,5.93
2022-11-07T07:19:46.890Z,5.05
2022-11-07T07:22:14.127Z,5.43
2022-11-07T07:24:40.954Z,6.30
2022-11-07T07:27:08.017Z,6.63
2022-11-07T07:29:34.930Z,7.10
2022-11-07T07:32:01.816Z,5.30
2022-11-07T07:34:28.742Z,6.10
2022-11-07T07:36:55.386Z,6.60
2022-11-07T07:39:23.830Z,6.10
2022-11-07T07:41:50.982Z,6.45
2022-11-07T07:44:17.940Z,7.60
2022-11-07T07:46:44.673Z,7.53
2022-11-07T07:49:11.430Z,7.00
2022-11-07T07:51:38.168Z,7.80
2022-11-07T07:54:04.993Z,7.28
2022-11-07T07:56:31.843Z,6.32
2022-11-07T07:58:58.710Z,7.00
2022-11-07T08:01:25.686Z,6.30
2022-11-07T08:04:01.200Z,6.13
2022-11-07T08:06:29.962Z,6.43
2022-11-07T08:08:56.900Z,5.22
2022-11-07T08:11:23.625Z,5.05
2022-11-07T08:13:50.369Z,5.38
2022-11-07T08:16:17.240Z,5.15
2022-11-07T08:18:44.061Z,5.22
2022-11-07T08:21:11.110Z,4.95
2022-11-07T08:23:38.467Z,4.70
2022-11-07T08:26:05.974Z,5.10
2022-11-07T08:28:35.705Z,5.85
2022-11-07T08:31:04.374Z,4.40
2022-11-07T08:33:31.569Z,4.47
2022-11-07T08:36:03.010Z,4.78
2022-11-07T08:38:31.589Z,4.78
2022-11-07T08:40:59.042Z,4.85
2022-11-07T08:43:26.694Z,5.18
2022-11-07T08:45:54.671Z,4.53
2022-11-07T08:48:21.925Z,5.70
2022-11-07T08:50:56.800Z,5.00
2022-11-07T08:53:25.226Z,4.70
2022-11-07T08:55:52.884Z,5.60
2022-11-07T08:58:20.082Z,5.47
2022-11-07T09:00:47.166Z,5.53
2022-11-07T09:06:01.059Z,5.90
2022-11-07T09:08:28.029Z,5.30
2022-11-07T09:10:54.945Z,4.97
2022-11-07T09:13:21.949Z,5.97
2022-11-07T09:15:51.456Z,5.35
2022-11-07T09:18:19.740Z,5.22
2022-11-07T09:20:47.647Z,5.07
2022-11-07T09:23:14.959Z,6.00
2022-11-07T09:25:41.925Z,5.93
2022-11-07T09:28:09.062Z,5.63
2022-11-07T09:30:36.033Z,6.07
2022-11-07T09:33:02.752Z,5.10
2022-11-07T09:35:29.551Z,5.53
2022-11-07T09:37:56.501Z,5.43
2022-11-07T09:40:40.787Z,5.88
2022-11-07T09:43:22.754Z,5.30
2022-11-07T09:46:12.255Z,5.38
2022-11-07T09:48:44.921Z,5.63
2022-11-07T09:51:32.695Z,5.68
2022-11-07T09:54:07.522Z,6.00
2022-11-07T09:56:34.693Z,5.95
2022-11-07T09:59:12.785Z,6.55
2022-11-07T10:01:41.806Z,5.93
2022-11-07T10:04:26.130Z,5.82
2022-11-07T10:07:04.485Z,5.28
2022-11-07T10:09:40.074Z,5.45
2022-11-07T10:12:28.417Z,5.32
2022-11-07T10:15:04.228Z,4.60
2022-11-07T10:17:54.029Z,4.40
2022-11-07T10:20:45.123Z,5.03
2022-11-07T10:23:48.841Z,5.43
2022-11-07T10:26:20.382Z,4.63
2022-11-07T10:29:00.042Z,4.63
2022-11-07T10:31:39.106Z,4.50
2022-11-07T10:34:18.176Z,5.30
2022-11-07T10:36:44.913Z,4.75
2022-11-07T10:39:16.786Z,4.63
2022-11-07T10:42:08.814Z,5.35
2022-11-07T10:44:36.452Z,4.05
2022-11-07T10:47:14.035Z,4.72
2022-11-07T10:49:40.695Z,4.25
2022-11-07T10:52:10.006Z,5.07
2022-11-07T10:54:36.977Z,4.45
2022-11-07T10:57:10.750Z,4.45
2022-11-07T10:59:41.355Z,4.60
2022-11-07T11:02:43.768Z,4.90
2022-11-07T11:05:22.388Z,4.93
2022-11-07T11:07:49.103Z,4.82
2022-11-07T11:10:18.935Z,4.63
2022-11-07T11:12:47.906Z,4.70
2022-11-07T11:15:22.224Z,5.70
2022-11-07T11:18:16.429Z,4.23
2022-11-07T11:20:46.929Z,5.22
2022-11-07T11:23:25.590Z,5.30
2022-11-07T11:25:59.748Z,5.03
2022-11-07T11:28:40.322Z,4.78
2022-11-07T11:31:13.098Z,5.22
2022-11-07T11:33:52.195Z,4.38
2022-11-07T11:36:29.594Z,4.85
2022-11-07T11:38:56.586Z,6.07
2022-11-07T11:41:38.078Z,4.90
2022-11-07T11:44:40.193Z,5.00
2022-11-07T11:47:18.930Z,5.32
2022-11-07T11:49:52.272Z,4.93
2022-11-07T11:52:24.189Z,4.80
2022-11-07T11:54:52.976Z,4.88
2022-11-07T11:58:01.819Z,5.00
2022-11-07T12:00:34.151Z,5.45
2022-11-07T12:03:07.009Z,5.35
2022-11-07T12:05:52.550Z,5.70
2022-11-07T12:11:00.892Z,5.78
2022-11-07T12:14:23.339Z,5.78
2022-11-07T12:17:18.775Z,6.05
2022-11-07T12:19:45.362Z,5.53
2022-11-07T12:22:38.847Z,5.15
2022-11-07T12:25:23.842Z,5.30
2022-11-07T12:27:59.359Z,6.05
2022-11-07T12:31:04.467Z,4.53
2022-11-07T12:33:50.996Z,6.40
2022-11-07T12:36:39.725Z,5.30
2022-11-07T12:39:20.659Z,5.70
2022-11-07T12:41:58.288Z,5.07
2022-11-07T12:44:40.281Z,5.38
2022-11-07T12:47:38.479Z,5.05
2022-11-07T12:50:19.549Z,4.75
2022-11-07T12:52:58.247Z,5.22
2022-11-07T12:55:31.781Z,4.55
2022-11-07T12:57:59.589Z,5.07
2022-11-07T13:00:30.308Z,4.57
2022-11-07T13:03:30.781Z,4.47
2022-11-07T13:06:10.152Z,4.05
2022-11-07T13:08:49.016Z,4.20
2022-11-07T13:11:37.840Z,5.38
2022-11-07T13:14:38.217Z,3.95
2022-11-07T13:17:12.659Z,4.05
2022-11-07T13:19:44.955Z,4.00
2022-11-07T13:22:17.862Z,4.28
2022-11-07T13:25:09.391Z,4.18
2022-11-07T13:27:41.675Z,3.80
2022-11-07T13:30:17.325Z,3.85
2022-11-07T13:32:49.394Z,4.10
2022-11-07T13:35:26.734Z,3.90
2022-11-07T13:37:53.546Z,4.53
2022-11-07T13:40:26.581Z,3.78
2022-11-07T13:43:35.325Z,3.30
2022-11-07T13:46:06.060Z,3.30
2022-11-07T13:48:50.303Z,4.75
2022-11-07T13:51:26.287Z,4.15
2022-11-07T13:54:02.323Z,3.65
2022-11-07T13:56:44.408Z,4.10
2022-11-07T13:59:19.926Z,4.45
2022-11-07T14:01:55.102Z,3.30
2022-11-07T14:04:22.232Z,3.95
2022-11-07T14:06:50.801Z,3.58
2022-11-07T14:09:20.529Z,3.85
2022-11-07T14:11:49.887Z,3.83
2022-11-07T14:14:17.294Z,3.65
2022-11-07T14:16:47.170Z,3.30
2022-11-07T14:19:27.652Z,3.92
2022-11-07T14:21:56.217Z,3.97
2022-11-07T14:24:27.070Z,3.67
2022-11-07T14:27:06.411Z,3.58
2022-11-07T14:29:33.575Z,3.45
2022-11-07T14:32:03.221Z,4.15
2022-11-07T14:34:30.413Z,3.58
2022-11-07T14:37:00.922Z,3.85
2022-11-07T14:39:30.269Z,3.75
2022-11-07T14:41:59.403Z,4.00
2022-11-07T14:44:41.955Z,3.47
2022-11-07T14:47:20.754Z,3.78
2022-11-07T14:49:50.165Z,4.03
2022-11-07T14:52:26.096Z,3.88
2022-11-07T14:55:05.475Z,4.10
2022-11-07T14:57:37.735Z,3.78
2022-11-07T15:00:13.438Z,3.45
2022-11-07T15:02:40.461Z,3.55
2022-11-07T15:05:41.133Z,3.60
2022-11-07T15:08:34.008Z,3.95
2022-11-07T15:11:00.649Z,4.20
2022-11-07T15:13:30.197Z,3.70
2022-11-07T15:16:08.042Z,3.95
2022-11-07T15:18:41.489Z,4.93
2022-11-07T15:21:12.486Z,4.47
2022-11-07T15:23:39.202Z,3.90
2022-11-07T15:26:13.264Z,4.65
2022-11-07T15:28:43.124Z,4.90
2022-11-07T15:31:37.878Z,5.13
2022-11-07T15:34:11.099Z,4.65
2022-11-07T15:36:41.287Z,4.10
2022-11-07T15:39:10.067Z,3.67
2022-11-07T15:41:36.934Z,4.22
2022-11-07T15:44:03.862Z,5.05
2022-11-07T15:46:35.847Z,3.83
2022-11-07T15:49:03.578Z,4.30
2022-11-07T15:51:31.257Z,4.65
2022-11-07T15:53:58.434Z,3.92
2022-11-07T15:56:26.110Z,4.60
2022-11-07T15:58:54.802Z,4.00
2022-11-07T16:01:22.567Z,4.28
2022-11-07T16:03:49.497Z,4.32
2022-11-07T16:06:25.961Z,4.00
2022-11-07T16:08:53.514Z,4.53
2022-11-07T16:11:20.726Z,4.68
2022-11-07T16:13:47.511Z,4.53
2022-11-07T16:16:24.047Z,4.65
2022-11-07T16:18:52.765Z,4.88
2022-11-07T16:21:20.575Z,4.20
2022-11-07T16:23:50.155Z,4.10
2022-11-07T16:26:26.347Z,4.10
2022-11-07T16:28:53.198Z,4.82
2022-11-07T16:31:19.907Z,5.00
2022-11-07T16:33:46.911Z,4.40
2022-11-07T16:36:28.724Z,4.22
2022-11-07T16:38:55.581Z,4.32
2022-11-07T16:41:22.681Z,4.70
2022-11-07T16:43:49.961Z,4.82
2022-11-07T16:46:19.563Z,5.50
2022-11-07T16:48:49.096Z,5.00
2022-11-07T16:51:18.402Z,3.63
2022-11-07T16:53:45.962Z,4.15
2022-11-07T16:56:31.290Z,4.47
2022-11-07T16:58:59.283Z,3.53
2022-11-07T17:01:27.260Z,3.78
2022-11-07T17:03:54.593Z,3.30
2022-11-07T17:06:31.430Z,3.28
2022-11-07T17:09:07.254Z,4.10
2022-11-07T17:11:37.864Z,3.40
2022-11-07T17:14:04.917Z,3.47
2022-11-07T17:16:35.613Z,3.20
2022-11-07T17:19:04.427Z,2.90
2022-11-07T17:21:37.071Z,3.60
2022-11-07T17:24:04.537Z,2.97
2022-11-07T17:26:34.765Z,3.53
2022-11-07T17:29:02.835Z,3.25
2022-11-07T17:31:29.604Z,3.60
2022-11-07T17:33:56.426Z,3.20
2022-11-07T17:36:36.708Z,3.85
2022-11-07T17:39:11.627Z,3.75
2022-11-07T17:41:40.417Z,3.45
2022-11-07T17:44:07.630Z,2.90
2022-11-07T17:46:35.621Z,2.90
2022-11-07T17:49:06.974Z,3.13
2022-11-07T17:51:38.211Z,3.13
2022-11-07T17:54:05.165Z,2.83
2022-11-07T17:56:33.283Z,2.90
2022-11-07T17:59:06.399Z,3.05
2022-11-07T18:01:36.602Z,2.20
2022-11-07T18:04:05.103Z,2.00
2022-11-07T18:06:37.664Z,2.38
2022-11-07T18:09:06.474Z,2.47
2022-11-07T18:11:35.510Z,2.33
2022-11-07T18:14:02.590Z,2.40
2022-11-07T18:16:32.538Z,2.90
2022-11-07T18:19:00.374Z,2.20
2022-11-07T18:21:28.442Z,2.10
2022-11-07T18:23:55.999Z,2.20
2022-11-07T18:26:31.076Z,2.33
2022-11-07T18:29:02.554Z,2.03
2022-11-07T18:31:29.427Z,2.28
2022-11-07T18:33:58.326Z,1.90
2022-11-07T18:36:26.509Z,2.13
2022-11-07T18:38:53.414Z,2.28
2022-11-07T18:41:23.277Z,2.40
2022-11-07T18:43:53.057Z,2.20
2022-11-07T18:46:20.907Z,1.92
2022-11-07T18:48:48.381Z,2.00
2022-11-07T18:51:18.059Z,1.95
2022-11-07T18:53:45.458Z,1.95
2022-11-07T18:56:13.378Z,2.13
2022-11-07T18:58:43.457Z,1.85
2022-11-07T19:01:17.875Z,2.22
2022-11-07T19:03:45.696Z,1.80
2022-11-07T19:06:15.590Z,2.33
2022-11-07T19:08:44.730Z,2.35
2022-11-07T19:11:14.618Z,2.22
2022-11-07T19:13:43.070Z,2.28
2022-11-07T19:16:11.814Z,2.20
2022-11-07T19:18:39.045Z,1.83
2022-11-07T19:21:08.471Z,2.10
2022-11-07T19:23:37.127Z,1.80
2022-11-07T19:26:05.080Z,1.98
2022-11-07T19:28:32.169Z,2.05
2022-11-07T19:31:03.976Z,2.20
2022-11-07T19:33:30.759Z,1.92
2022-11-07T19:36:00.709Z,2.38
2022-11-07T19:38:28.717Z,2.10
2022-11-07T19:40:55.553Z,2.10
2022-11-07T19:43:22.705Z,1.92
2022-11-07T19:45:49.752Z,2.08
2022-11-07T19:48:17.090Z,2.10
2022-11-07T19:50:44.023Z,1.85
2022-11-07T19:53:10.945Z,2.10
2022-11-07T19:55:37.737Z,2.28
2022-11-07T19:58:06.434Z,2.08
2022-11-07T20:00:33.454Z,2.22
2022-11-07T20:03:01.074Z,1.63
2022-11-07T20:05:34.271Z,1.75
2022-11-07T20:08:05.257Z,1.80
2022-11-07T20:10:33.104Z,2.00
2022-11-07T20:12:59.937Z,1.67
2022-11-07T20:15:26.798Z,1.58
2022-11-07T20:17:53.568Z,1.70
2022-11-07T20:20:20.507Z,1.70
2022-11-07T20:22:50.600Z,2.78
2022-11-07T20:25:17.552Z,1.00
2022-11-07T20:27:44.790Z,1.00
2022-11-07T20:30:12.336Z,1.20
2022-11-07T20:32:40.354Z,1.17
2022-11-07T20:35:08.045Z,1.20
2022-11-07T20:37:35.745Z,1.35
2022-11-07T20:40:03.094Z,0.63
2022-11-07T20:42:29.831Z,1.15
2022-11-07T20:44:56.696Z,1.20
2022-11-07T20:47:23.845Z,1.25
2022-11-07T20:49:50.716Z,0.90
2022-11-07T20:52:18.122Z,1.05
2022-11-07T20:54:45.067Z,1.38
2022-11-07T20:57:11.781Z,1.48
2022-11-07T20:59:41.369Z,1.00
2022-11-07T21:02:13.201Z,1.10
2022-11-07T21:05:03.340Z,0.98
2022-11-07T21:07:26.705Z,1.15
2022-11-07T21:09:53.660Z,1.33
2022-11-07T21:12:20.519Z,2.20
2022-11-07T21:14:47.258Z,1.73
2022-11-07T21:17:16.253Z,1.52
2022-11-07T21:19:43.084Z,1.30
2022-11-07T21:22:09.950Z,1.55
2022-11-07T21:24:36.626Z,1.20
2022-11-07T21:27:04.043Z,0.95
2022-11-07T21:29:30.797Z,1.02
2022-11-07T21:31:57.655Z,1.13
2022-11-07T21:34:24.810Z,0.95
2022-11-07T21:36:51.561Z,0.80
2022-11-07T21:39:18.432Z,1.27
2022-11-07T21:41:45.420Z,0.60
2022-11-07T21:44:12.813Z,0.75
2022-11-07T21:46:39.945Z,0.70
2022-11-07T21:49:06.858Z,0.88
2022-11-07T21:51:36.940Z,0.63
2022-11-07T21:54:05.545Z,1.02
2022-11-07T21:56:35.444Z,0.82
2022-11-07T21:59:08.517Z,0.77
2022-11-07T22:01:36.980Z,0.68
2022-11-07T22:04:08.726Z,0.70
2022-11-07T22:06:38.700Z,0.75
2022-11-07T22:09:07.937Z,1.17
2022-11-07T22:11:35.085Z,0.93
2022-11-07T22:14:02.484Z,0.73
2022-11-07T22:16:29.580Z,0.52
2022-11-07T22:18:56.461Z,0.60
2022-11-07T22:21:23.821Z,0.73
2022-11-07T22:23:51.137Z,0.80
2022-11-07T22:26:23.197Z,0.70
2022-11-07T22:28:50.793Z,0.80
2022-11-07T22:31:20.496Z,0.80
2022-11-07T22:33:47.811Z,0.88
2022-11-07T22:36:15.629Z,0.68
2022-11-07T22:38:42.865Z,0.70
2022-11-07T22:41:13.620Z,0.75
2022-11-07T22:43:41.069Z,0.73
2022-11-07T22:46:13.487Z,0.68
2022-11-07T22:48:41.395Z,2.22
2022-11-07T22:51:11.409Z,0.90
2022-11-07T22:53:39.377Z,0.98
2022-11-07T22:56:14.618Z,1.05
2022-11-07T22:58:42.620Z,0.90
2022-11-07T23:01:35.977Z,0.60
2022-11-07T23:04:04.262Z,0.65
2022-11-07T23:06:31.375Z,0.73
2022-11-07T23:08:59.361Z,0.80
2022-11-07T23:11:50.048Z,0.50
2022-11-07T23:14:21.561Z,1.67
2022-11-07T23:16:50.893Z,0.70
2022-11-07T23:19:20.056Z,0.73
2022-11-07T23:21:47.034Z,0.80
2022-11-07T23:24:14.092Z,0.57
2022-11-07T23:26:41.622Z,0.70
2022-11-07T23:29:20.870Z,1.85
2022-11-07T23:31:49.978Z,0.90
2022-11-07T23:34:18.746Z,0.55
2022-11-07T23:36:45.889Z,0.50
2022-11-07T23:39:15.813Z,0.55
2022-11-07T23:41:42.927Z,0.80
2022-11-07T23:44:11.062Z,0.60
2022-11-07T23:46:56.771Z,0.60
2022-11-07T23:49:42.434Z,0.80
2022-11-07T23:54:54.469Z,0.60
2022-11-07T23:57:21.273Z,0.80
